North Woodbury, Ohio
Current Conditions -  °F | °C
As of 10:52 AM on Wednesday 22 Oct 2014 (Local Time) from KMFD Reporting Station
Haze Haze  
Wind Chill: 38°   Ceiling: 500
Heat Index: 44°   Visibility: 6mi
Dew Point: 43°   Wind: 12mph
Humidity: 96%   Direction: 330°NNW
Pressure: 30.26"   Gusts: NA
Location:  40.5997°N, 82.5303°W
Report Text: KMFD 221452Z 33010KT 6SM BR OVC005 07/06 A3026 RMK AO2 SLP253 T00670061 51014
Loading
Personal Weather Stations






























Interactive Weather Map
Tropical Storm Tracking
New forecast layout! Learn more

10-Day Weather Forecast

Advertisements
Track Severe Weather on mobile